createdAt,value
2018-09-04T00:50:58.547Z,95172.97
2018-09-04T00:56:07.822Z,95172.80
2018-09-04T02:33:13.568Z,95153.80
2018-09-04T02:38:16.847Z,95162.06
2018-09-04T02:43:20.193Z,95160.08
2018-09-04T03:45:58.310Z,95164.58
2018-09-04T03:51:01.651Z,95166.61
2018-09-04T03:56:10.763Z,95168.31
2018-09-04T04:35:46.395Z,95191.03
2018-09-04T04:40:49.743Z,95198.45
2018-09-04T04:45:59.631Z,95194.91
2018-09-04T04:51:02.976Z,95200.80
2018-09-04T04:56:18.341Z,95197.53
2018-09-04T05:01:21.678Z,95194.20
2018-09-04T05:06:28.165Z,95196.80
2018-09-04T05:11:31.553Z,95202.25
2018-09-04T05:16:49.875Z,95201.43
2018-09-04T05:21:53.994Z,95211.56
2018-09-04T05:26:57.337Z,95209.41
2018-09-04T05:32:00.679Z,95209.36
2018-09-04T05:37:04.010Z,95205.78
2018-09-04T05:42:07.345Z,95202.77
2018-09-04T05:47:10.674Z,95207.35
2018-09-04T05:52:14.772Z,95213.70
2018-09-04T05:57:18.111Z,95202.45
2018-09-04T06:02:22.269Z,95198.23
2018-09-04T06:07:25.575Z,95207.63
2018-09-04T06:12:29.684Z,95217.13
2018-09-04T06:17:33.023Z,95218.45
2018-09-04T06:22:36.350Z,95224.38
2018-09-04T06:27:39.691Z,95213.09
2018-09-04T07:01:29.368Z,95240.13
2018-09-04T07:06:32.711Z,95237.74
2018-09-04T07:11:36.052Z,95247.22
2018-09-04T08:02:41.696Z,95259.17
2018-09-04T08:07:45.042Z,95261.63
2018-09-04T08:12:49.142Z,95260.36
2018-09-04T09:03:56.174Z,95254.61
2018-09-04T09:08:59.519Z,95245.50
2018-09-04T09:14:02.861Z,95249.66
2018-09-04T10:05:07.819Z,95268.52
2018-09-04T10:10:11.176Z,95278.45
2018-09-04T11:01:10.247Z,95279.10
2018-09-04T11:06:13.584Z,95279.27
2018-09-04T11:11:16.921Z,95291.41
2018-09-04T12:02:22.539Z,95293.22
2018-09-04T12:07:25.903Z,95291.44
2018-09-04T12:12:29.345Z,95294.57
2018-09-04T13:03:34.813Z,95300.50
2018-09-04T13:08:38.152Z,95306.92
2018-09-04T13:13:41.488Z,95300.94
2018-09-04T14:04:47.206Z,95306.87
2018-09-04T14:09:50.541Z,95306.02
2018-09-04T14:14:53.885Z,95304.08
2018-09-04T14:48:43.282Z,95290.56
2018-09-04T14:53:46.615Z,95287.84
2018-09-04T14:58:50.713Z,95293.95
2018-09-04T15:32:39.382Z,95291.05
2018-09-04T15:37:42.725Z,95303.12
2018-09-04T15:42:46.111Z,95305.56
2018-09-04T15:47:49.404Z,95304.20
2018-09-04T15:52:52.739Z,95297.77
2018-09-04T15:57:56.062Z,95290.50
2018-09-04T16:02:59.398Z,95294.53
2018-09-04T16:08:02.747Z,95300.33
2018-09-04T16:13:06.087Z,95301.78
2018-09-04T16:18:09.416Z,95295.17
2018-09-04T16:23:12.754Z,95291.18
2018-09-04T16:28:16.100Z,95294.88
2018-09-04T16:33:19.428Z,95296.50
2018-09-04T16:38:22.762Z,95294.83
2018-09-04T16:43:26.086Z,95294.14
2018-09-04T16:48:29.433Z,95295.14
2018-09-04T16:53:33.551Z,95296.41
2018-09-04T16:58:37.649Z,95301.69
2018-09-04T17:03:41.071Z,95298.09
2018-09-04T17:08:45.477Z,95310.62
2018-09-04T17:13:48.939Z,95320.87
2018-09-04T17:18:52.293Z,95314.68
2018-09-04T17:23:55.635Z,95319.00
2018-09-04T17:28:58.962Z,95322.34
2018-09-04T17:34:02.308Z,95324.34
2018-09-04T17:39:06.418Z,95324.70
2018-09-04T17:44:20.443Z,95331.14
2018-09-04T17:49:23.857Z,95330.81
2018-09-04T17:54:27.186Z,95329.70
2018-09-04T17:59:30.531Z,95331.88
2018-09-04T18:04:33.876Z,95334.05
2018-09-04T18:09:37.215Z,95341.08
2018-09-04T18:14:45.562Z,95347.08
2018-09-04T18:19:48.926Z,95347.53
2018-09-04T18:30:07.156Z,95357.34
2018-09-04T18:35:14.544Z,95363.02
2018-09-04T18:40:19.272Z,95370.59
2018-09-04T18:45:54.664Z,95373.17
2018-09-04T18:51:00.382Z,95377.06
2018-09-04T18:56:09.456Z,95375.64
2018-09-04T19:01:14.335Z,95381.62
2018-09-04T19:06:20.814Z,95387.23
2018-09-04T19:11:24.155Z,95385.45
2018-09-04T19:16:27.497Z,95384.39
2018-09-04T19:21:31.699Z,95393.53
2018-09-04T19:26:46.049Z,95381.55
2018-09-04T19:31:52.258Z,95379.30
2018-09-04T19:41:58.420Z,95394.05
2018-09-04T19:47:01.803Z,95393.55
2018-09-04T19:52:05.909Z,95398.18
2018-09-04T19:57:09.255Z,95402.45
2018-09-04T20:02:12.627Z,95411.73
2018-09-04T20:07:16.040Z,95413.08
2018-09-04T20:12:19.359Z,95411.68
2018-09-04T20:17:22.907Z,95421.58
2018-09-04T20:22:26.322Z,95427.69
2018-09-04T20:27:30.866Z,95425.16
2018-09-04T20:32:34.263Z,95413.08
2018-09-04T20:37:57.069Z,95414.52
2018-09-04T20:43:02.898Z,95410.57
2018-09-04T20:48:07.030Z,95413.77
2018-09-04T20:53:10.375Z,95418.84
2018-09-04T20:58:32.140Z,95422.54
2018-09-04T21:03:53.294Z,95415.97
2018-09-04T21:08:56.663Z,95419.97
2018-09-04T21:14:00.803Z,95424.20
2018-09-04T21:19:04.175Z,95422.66
2018-09-04T21:24:07.654Z,95430.28
2018-09-04T21:29:11.143Z,95427.08
2018-09-04T21:34:15.270Z,95428.92
2018-09-04T21:39:19.407Z,95429.77
2018-09-04T21:44:41.076Z,95433.17
2018-09-04T21:49:44.435Z,95436.63
2018-09-04T21:54:47.816Z,95427.16
2018-09-04T21:59:51.170Z,95414.22
2018-09-04T22:04:55.319Z,95412.69
2018-09-04T22:09:59.461Z,95421.78
2018-09-04T22:15:02.969Z,95423.00
2018-09-04T22:20:07.101Z,95420.78
2018-09-04T22:25:11.246Z,95428.16
2018-09-04T22:30:15.448Z,95426.86
2018-09-04T22:35:19.192Z,95431.89
2018-09-04T22:40:23.428Z,95434.11
2018-09-04T22:45:27.008Z,95442.80
2018-09-04T22:50:30.366Z,95444.72
2018-09-04T22:55:39.871Z,95432.48
2018-09-04T23:00:43.233Z,95426.84
2018-09-04T23:05:47.359Z,95434.13
2018-09-04T23:10:51.489Z,95428.82
